createdAt,value
2022-11-24T00:00:12.498Z,3.00
2022-11-24T00:02:39.052Z,2.92
2022-11-24T00:05:05.934Z,2.65
2022-11-24T00:07:32.450Z,2.50
2022-11-24T00:09:58.878Z,3.47
2022-11-24T00:12:25.378Z,2.85
2022-11-24T00:14:51.788Z,2.78
2022-11-24T00:17:21.202Z,2.85
2022-11-24T00:19:47.607Z,2.50
2022-11-24T00:22:14.182Z,3.00
2022-11-24T00:24:40.618Z,2.60
2022-11-24T00:27:07.033Z,3.10
2022-11-24T00:29:33.457Z,3.22
2022-11-24T00:31:59.977Z,3.58
2022-11-24T00:34:26.436Z,2.72
2022-11-24T00:36:52.855Z,3.30
2022-11-24T00:39:19.254Z,3.90
2022-11-24T00:41:45.727Z,3.25
2022-11-24T00:44:12.183Z,3.33
2022-11-24T00:46:38.750Z,3.63
2022-11-24T00:49:05.282Z,3.38
2022-11-24T00:51:34.941Z,4.03
2022-11-24T00:54:01.797Z,3.25
2022-11-24T00:56:28.956Z,3.53
2022-11-24T00:58:55.445Z,3.60
2022-11-24T01:01:26.010Z,4.15
2022-11-24T01:03:53.628Z,3.03
2022-11-24T01:06:21.403Z,3.67
2022-11-24T01:08:47.825Z,3.45
2022-11-24T01:11:15.800Z,3.70
2022-11-24T01:13:42.904Z,3.15
2022-11-24T01:16:15.320Z,3.33
2022-11-24T01:18:41.868Z,3.40
2022-11-24T01:21:10.242Z,4.00
2022-11-24T01:23:37.026Z,3.90
2022-11-24T01:26:08.018Z,3.47
2022-11-24T01:28:34.848Z,4.55
2022-11-24T01:31:02.601Z,3.25
2022-11-24T01:33:29.184Z,3.75
2022-11-24T01:35:58.242Z,4.50
2022-11-24T01:38:25.530Z,4.22
2022-11-24T01:41:06.707Z,4.13
2022-11-24T01:43:33.388Z,4.13
2022-11-24T01:46:03.860Z,3.65
2022-11-24T01:48:32.060Z,3.58
2022-11-24T01:51:03.957Z,3.63
2022-11-24T01:53:30.617Z,4.10
2022-11-24T01:55:57.687Z,3.63
2022-11-24T01:58:25.636Z,4.03
2022-11-24T02:00:52.311Z,3.60
2022-11-24T02:03:20.632Z,4.13
2022-11-24T02:05:50.038Z,4.07
2022-11-24T02:08:26.259Z,3.67
2022-11-24T02:10:52.752Z,3.85
2022-11-24T02:13:19.463Z,3.20
2022-11-24T02:15:45.923Z,4.45
2022-11-24T02:18:12.406Z,3.38
2022-11-24T02:20:38.870Z,3.42
2022-11-24T02:23:08.501Z,4.63
2022-11-24T02:25:34.956Z,3.58
2022-11-24T02:28:02.357Z,4.18
2022-11-24T02:30:28.816Z,3.75
2022-11-24T02:32:55.461Z,3.80
2022-11-24T02:35:22.316Z,3.72
2022-11-24T02:37:48.742Z,3.63
2022-11-24T02:40:16.621Z,4.57
2022-11-24T02:42:44.516Z,4.35
2022-11-24T02:45:11.377Z,3.65
2022-11-24T02:47:37.846Z,3.92
2022-11-24T02:50:04.431Z,3.60
2022-11-24T02:52:31.008Z,4.25
2022-11-24T02:54:57.421Z,4.18
2022-11-24T02:57:23.846Z,3.83
2022-11-24T02:59:50.494Z,3.95
2022-11-24T03:02:17.031Z,3.58
2022-11-24T03:04:44.761Z,4.55
2022-11-24T03:07:11.241Z,3.75
2022-11-24T03:09:37.700Z,3.88
2022-11-24T03:12:04.230Z,4.55
2022-11-24T03:14:30.759Z,4.00
2022-11-24T03:16:57.305Z,4.50
2022-11-24T03:19:23.709Z,4.03
2022-11-24T03:21:50.208Z,4.75
2022-11-24T03:24:16.690Z,4.97
2022-11-24T03:26:43.098Z,4.03
2022-11-24T03:29:12.571Z,4.13
2022-11-24T03:31:39.049Z,3.85
2022-11-24T03:34:05.505Z,4.05
2022-11-24T03:36:31.969Z,4.43
2022-11-24T03:38:58.430Z,4.25
2022-11-24T03:41:24.906Z,4.18
2022-11-24T03:43:51.438Z,4.30
2022-11-24T03:46:17.904Z,3.83
2022-11-24T03:48:44.593Z,3.88
2022-11-24T03:51:11.039Z,4.20
2022-11-24T03:53:37.751Z,4.18
2022-11-24T03:56:04.258Z,3.42
2022-11-24T03:58:30.834Z,3.72
2022-11-24T04:00:57.610Z,3.65
2022-11-24T04:03:24.487Z,3.97
2022-11-24T04:05:51.029Z,4.00
2022-11-24T04:08:17.962Z,3.53
2022-11-24T04:10:44.404Z,4.78
2022-11-24T04:13:12.324Z,3.78
2022-11-24T04:15:41.896Z,3.65
2022-11-24T04:18:08.716Z,4.32
2022-11-24T04:20:35.264Z,4.00
2022-11-24T04:23:01.916Z,3.53
2022-11-24T04:25:28.639Z,3.85
2022-11-24T04:27:55.605Z,4.80
2022-11-24T04:30:22.933Z,4.38
2022-11-24T04:32:49.495Z,4.28
2022-11-24T04:35:15.911Z,4.65
2022-11-24T04:37:42.457Z,4.53
2022-11-24T04:40:09.786Z,4.20
2022-11-24T04:42:36.206Z,4.22
2022-11-24T04:45:03.104Z,4.30
2022-11-24T04:47:31.721Z,4.03
2022-11-24T04:49:58.290Z,4.22
2022-11-24T04:52:25.305Z,4.05
2022-11-24T04:54:51.933Z,4.22
2022-11-24T04:57:19.598Z,4.15
2022-11-24T04:59:46.000Z,4.10
2022-11-24T05:02:12.874Z,4.25
2022-11-24T05:04:39.829Z,3.80
2022-11-24T05:07:06.519Z,4.07
2022-11-24T05:09:55.256Z,3.90
2022-11-24T05:12:23.454Z,5.60
2022-11-24T05:14:50.203Z,4.43
2022-11-24T05:17:16.578Z,4.20
2022-11-24T05:19:42.935Z,4.28
2022-11-24T05:22:09.377Z,4.60
2022-11-24T05:24:35.906Z,4.45
2022-11-24T05:27:02.419Z,4.75
2022-11-24T05:29:30.642Z,4.00
2022-11-24T05:31:56.994Z,4.30
2022-11-24T05:34:23.376Z,4.75
2022-11-24T05:36:52.841Z,4.57
2022-11-24T05:39:19.348Z,4.72
2022-11-24T05:41:45.983Z,6.32
2022-11-24T05:44:12.349Z,5.57
2022-11-24T05:46:38.765Z,5.35
2022-11-24T05:49:05.164Z,5.60
2022-11-24T05:51:33.322Z,5.47
2022-11-24T05:53:59.764Z,6.30
2022-11-24T05:56:26.141Z,5.65
2022-11-24T05:58:52.731Z,4.65
2022-11-24T06:01:19.088Z,5.50
2022-11-24T06:03:45.433Z,6.15
2022-11-24T06:06:11.822Z,4.78
2022-11-24T06:08:38.145Z,5.53
2022-11-24T06:11:19.753Z,5.40
2022-11-24T06:13:47.121Z,5.43
2022-11-24T06:16:13.645Z,5.47
2022-11-24T06:18:40.233Z,6.07
2022-11-24T06:21:11.602Z,5.45
2022-11-24T06:23:38.646Z,5.85
2022-11-24T06:26:05.299Z,6.38
2022-11-24T06:28:31.846Z,5.45
2022-11-24T06:31:04.978Z,6.15
2022-11-24T06:33:34.939Z,6.00
2022-11-24T06:36:02.567Z,5.57
2022-11-24T06:38:29.032Z,5.28
2022-11-24T06:41:02.741Z,6.00
2022-11-24T06:43:29.620Z,5.95
2022-11-24T06:45:56.515Z,5.75
2022-11-24T06:48:23.418Z,6.00
2022-11-24T06:50:49.873Z,6.63
2022-11-24T06:53:16.313Z,5.78
2022-11-24T06:55:42.971Z,6.15
2022-11-24T06:58:09.323Z,5.82
2022-11-24T07:00:36.580Z,5.80
2022-11-24T07:03:03.000Z,6.32
2022-11-24T07:05:32.219Z,5.68
2022-11-24T07:08:01.926Z,5.93
2022-11-24T07:10:28.334Z,6.18
2022-11-24T07:12:54.824Z,5.97
2022-11-24T07:15:21.148Z,6.28
2022-11-24T07:17:47.676Z,6.40
2022-11-24T07:20:14.081Z,6.07
2022-11-24T07:22:43.478Z,6.00
2022-11-24T07:25:10.308Z,5.80
2022-11-24T07:27:37.087Z,5.85
2022-11-24T07:30:04.316Z,6.30
2022-11-24T07:32:30.948Z,5.40
2022-11-24T07:34:57.270Z,5.65
2022-11-24T07:37:28.123Z,6.65
2022-11-24T07:39:57.320Z,5.70
2022-11-24T07:42:23.664Z,6.13
2022-11-24T07:44:50.028Z,6.32
2022-11-24T07:47:16.345Z,6.90
2022-11-24T07:49:42.729Z,5.72
2022-11-24T07:52:09.476Z,5.57
2022-11-24T07:54:36.054Z,5.90
2022-11-24T07:57:02.816Z,5.03
2022-11-24T07:59:29.141Z,6.47
2022-11-24T08:01:55.534Z,5.10
2022-11-24T08:04:22.016Z,6.05
2022-11-24T08:06:48.351Z,6.03
2022-11-24T08:09:14.912Z,5.38
2022-11-24T08:11:41.488Z,4.97
2022-11-24T08:14:07.923Z,5.70
2022-11-24T08:16:34.302Z,5.53
2022-11-24T08:19:00.688Z,5.57
2022-11-24T08:21:30.050Z,4.93
2022-11-24T08:23:57.019Z,4.50
2022-11-24T08:26:24.919Z,4.90
2022-11-24T08:28:54.182Z,5.60
2022-11-24T08:31:20.530Z,5.45
2022-11-24T08:33:47.068Z,4.72
2022-11-24T08:36:14.596Z,4.53
2022-11-24T08:38:41.021Z,4.18
2022-11-24T08:41:09.079Z,4.72
2022-11-24T08:43:35.513Z,5.03
2022-11-24T08:46:02.859Z,5.07
2022-11-24T08:48:29.544Z,4.82
2022-11-24T08:50:58.520Z,5.72
2022-11-24T08:53:26.261Z,5.32
2022-11-24T08:55:52.620Z,5.10
2022-11-24T08:58:19.018Z,5.10
2022-11-24T09:00:45.369Z,4.40
2022-11-24T09:03:12.097Z,4.13
2022-11-24T09:05:54.194Z,5.00
2022-11-24T09:08:20.761Z,4.47
2022-11-24T09:10:47.405Z,4.32
2022-11-24T09:13:13.873Z,4.53
2022-11-24T09:15:40.303Z,4.32
2022-11-24T09:18:06.797Z,4.90
2022-11-24T09:20:33.166Z,4.32
2022-11-24T09:22:59.541Z,3.90
2022-11-24T09:25:25.864Z,4.82
2022-11-24T09:27:52.456Z,4.18
2022-11-24T09:30:18.944Z,4.18
2022-11-24T09:32:45.310Z,5.18
2022-11-24T09:35:11.663Z,3.83
2022-11-24T09:37:37.983Z,4.05
2022-11-24T09:40:04.667Z,3.78
2022-11-24T09:42:39.813Z,4.15
2022-11-24T09:45:42.026Z,3.67
2022-11-24T09:48:14.301Z,3.60
2022-11-24T09:50:49.612Z,3.47
2022-11-24T09:53:29.681Z,3.88
2022-11-24T09:56:00.314Z,3.60
2022-11-24T09:58:45.123Z,3.70
2022-11-24T10:01:14.590Z,4.47
2022-11-24T10:03:43.493Z,3.88
2022-11-24T10:06:34.778Z,4.00
2022-11-24T10:09:10.323Z,3.83
2022-11-24T10:11:39.646Z,3.50
2022-11-24T10:14:06.001Z,4.07
2022-11-24T10:16:41.566Z,4.35
2022-11-24T10:19:14.911Z,4.53
2022-11-24T10:22:08.424Z,3.97
2022-11-24T10:24:40.681Z,3.85
2022-11-24T10:27:18.254Z,4.03
2022-11-24T10:29:44.915Z,3.45
2022-11-24T10:32:16.606Z,4.30
2022-11-24T10:34:47.264Z,3.78
2022-11-24T10:37:16.909Z,4.30
2022-11-24T10:39:57.141Z,3.97
2022-11-24T10:42:27.814Z,3.65
2022-11-24T10:45:01.361Z,4.07
2022-11-24T10:47:28.359Z,3.65
2022-11-24T10:50:09.982Z,4.13
2022-11-24T10:52:44.857Z,4.25
2022-11-24T10:55:11.261Z,3.60
2022-11-24T10:57:38.852Z,4.00
2022-11-24T11:00:25.604Z,4.05
2022-11-24T11:03:10.412Z,3.95
2022-11-24T11:05:42.219Z,4.13
2022-11-24T11:08:14.674Z,4.40
2022-11-24T11:10:41.960Z,4.22
2022-11-24T11:13:27.145Z,3.80
2022-11-24T11:15:54.033Z,3.63
2022-11-24T11:18:20.987Z,3.90
2022-11-24T11:20:58.151Z,4.03
2022-11-24T11:23:34.778Z,3.95
2022-11-24T11:26:22.883Z,4.10
2022-11-24T11:34:39.928Z,4.05
2022-11-24T11:37:06.747Z,4.03
2022-11-24T11:39:34.946Z,4.07
2022-11-24T11:42:09.023Z,3.40
2022-11-24T11:44:37.913Z,4.05
2022-11-24T11:47:11.296Z,3.80
2022-11-24T11:49:38.238Z,4.40
2022-11-24T11:52:16.823Z,3.72
2022-11-24T11:55:02.075Z,4.22
2022-11-24T11:57:28.422Z,4.13
2022-11-24T12:00:13.043Z,3.60
2022-11-24T12:02:53.709Z,3.92
2022-11-24T12:08:09.188Z,3.40
2022-11-24T12:10:40.975Z,4.15
2022-11-24T12:13:10.427Z,4.15
2022-11-24T12:15:36.953Z,3.42
2022-11-24T12:18:48.613Z,4.45
2022-11-24T12:21:29.409Z,4.32
2022-11-24T12:24:25.129Z,4.13
2022-11-24T12:26:57.191Z,3.50
2022-11-24T12:29:44.477Z,3.95
2022-11-24T12:32:17.849Z,4.18
2022-11-24T12:34:52.449Z,3.90
2022-11-24T12:37:21.715Z,4.30
2022-11-24T12:40:01.031Z,3.95
2022-11-24T12:42:33.366Z,4.93
2022-11-24T12:45:06.460Z,5.25
2022-11-24T12:47:35.600Z,4.90
2022-11-24T12:50:17.317Z,4.68
2022-11-24T12:52:46.395Z,5.22
2022-11-24T12:55:15.034Z,4.78
2022-11-24T12:57:57.668Z,5.38
2022-11-24T13:00:29.399Z,5.63
2022-11-24T13:02:58.662Z,4.97
2022-11-24T13:05:40.140Z,5.50
2022-11-24T13:08:06.600Z,4.80
2022-11-24T13:13:19.720Z,4.78
2022-11-24T13:16:34.553Z,5.47
2022-11-24T13:18:47.709Z,7.55
2022-11-24T13:21:32.542Z,4.60
2022-11-24T13:23:59.903Z,4.63
2022-11-24T13:26:45.046Z,5.10
2022-11-24T13:29:33.568Z,4.60
2022-11-24T13:32:02.878Z,5.30
2022-11-24T13:34:42.705Z,4.80
2022-11-24T13:37:34.544Z,4.80
2022-11-24T13:40:14.068Z,5.50
2022-11-24T13:43:07.629Z,5.22
2022-11-24T13:45:40.681Z,4.43
2022-11-24T13:48:33.636Z,4.57
2022-11-24T13:51:02.808Z,5.80
2022-11-24T13:53:32.543Z,6.10
2022-11-24T13:56:00.191Z,5.30
2022-11-24T13:58:45.048Z,5.72
2022-11-24T14:01:13.192Z,5.25
2022-11-24T14:03:39.509Z,6.05
2022-11-24T14:06:06.019Z,5.45
2022-11-24T14:08:33.753Z,5.07
2022-11-24T14:11:01.311Z,5.13
2022-11-24T14:13:30.580Z,5.32
2022-11-24T14:16:08.913Z,5.13
2022-11-24T14:18:39.577Z,5.07
2022-11-24T14:21:35.256Z,5.50
2022-11-24T14:24:20.447Z,5.40
2022-11-24T14:26:49.446Z,5.95
2022-11-24T14:29:23.161Z,5.25
2022-11-24T14:31:53.140Z,5.85
2022-11-24T14:34:23.635Z,5.70
2022-11-24T14:36:56.705Z,5.38
2022-11-24T14:39:24.413Z,5.82
2022-11-24T14:41:52.422Z,6.15
2022-11-24T14:44:35.048Z,5.70
2022-11-24T14:47:05.885Z,6.10
2022-11-24T14:49:34.344Z,5.32
2022-11-24T14:52:02.264Z,5.40
2022-11-24T14:54:28.741Z,6.05
2022-11-24T14:56:59.689Z,5.90
2022-11-24T15:01:52.540Z,5.68
2022-11-24T15:07:12.978Z,5.20
2022-11-24T15:09:43.033Z,5.32
2022-11-24T15:12:17.668Z,6.10
2022-11-24T15:14:47.869Z,5.75
2022-11-24T15:17:21.933Z,6.53
2022-11-24T15:19:54.424Z,6.13
2022-11-24T15:22:47.148Z,6.18
2022-11-24T15:25:40.438Z,6.35
2022-11-24T15:28:07.958Z,6.20
2022-11-24T15:30:35.356Z,5.97
2022-11-24T15:33:01.678Z,5.70
2022-11-24T15:35:32.070Z,5.20
2022-11-24T15:38:00.849Z,6.22
2022-11-24T15:40:27.224Z,5.85
2022-11-24T15:42:54.911Z,6.60
2022-11-24T15:45:22.350Z,6.30
2022-11-24T15:47:48.716Z,6.20
2022-11-24T15:50:15.501Z,6.20
2022-11-24T15:52:42.402Z,7.57
2022-11-24T15:55:19.276Z,5.57
2022-11-24T15:57:45.989Z,6.03
2022-11-24T16:00:16.467Z,5.20
2022-11-24T16:02:42.843Z,6.63
2022-11-24T16:05:09.608Z,6.05
2022-11-24T16:07:36.005Z,6.60
2022-11-24T16:10:02.407Z,7.20
2022-11-24T16:12:28.825Z,6.10
2022-11-24T16:14:55.203Z,6.47
2022-11-24T16:17:21.541Z,6.60
2022-11-24T16:19:53.320Z,5.95
2022-11-24T16:22:26.294Z,5.65
2022-11-24T16:24:52.746Z,7.22
2022-11-24T16:27:19.214Z,6.57
2022-11-24T16:29:45.556Z,5.72
2022-11-24T16:32:11.864Z,6.07
2022-11-24T16:34:38.211Z,6.07
2022-11-24T16:37:04.560Z,5.90
2022-11-24T16:39:31.039Z,5.18
2022-11-24T16:41:57.649Z,5.63
2022-11-24T16:44:23.970Z,6.50
2022-11-24T16:46:50.358Z,5.93
2022-11-24T16:49:17.011Z,6.35
2022-11-24T16:51:43.466Z,6.05
2022-11-24T16:54:11.339Z,5.57
2022-11-24T16:56:37.673Z,5.50
2022-11-24T16:59:04.022Z,6.13
2022-11-24T17:01:30.795Z,5.55
2022-11-24T17:03:59.255Z,5.80
2022-11-24T17:06:26.815Z,6.07
2022-11-24T17:08:54.944Z,6.93
2022-11-24T17:11:22.661Z,6.40
2022-11-24T17:13:49.486Z,5.82
2022-11-24T17:16:17.226Z,5.32
2022-11-24T17:18:46.941Z,5.65
2022-11-24T17:21:14.288Z,6.88
2022-11-24T17:23:41.020Z,8.18
2022-11-24T17:26:08.631Z,12.18
2022-11-24T17:28:35.242Z,8.30
2022-11-24T17:31:16.904Z,7.18
2022-11-24T17:33:43.559Z,6.50
2022-11-24T17:36:09.942Z,6.03
2022-11-24T17:38:36.855Z,7.38
2022-11-24T17:41:03.492Z,5.78
2022-11-24T17:43:29.865Z,5.25
2022-11-24T17:45:59.167Z,6.18
2022-11-24T17:48:25.736Z,5.72
2022-11-24T17:51:10.346Z,6.53
2022-11-24T17:53:37.629Z,5.70
2022-11-24T17:56:04.727Z,6.15
2022-11-24T17:58:37.181Z,5.35
2022-11-24T18:01:06.431Z,5.68
2022-11-24T18:03:32.841Z,5.60
2022-11-24T18:06:05.994Z,6.05
2022-11-24T18:08:33.165Z,6.20
2022-11-24T18:11:05.435Z,5.97
2022-11-24T18:13:55.231Z,6.32
2022-11-24T18:16:18.946Z,5.25
2022-11-24T18:18:50.077Z,6.20
2022-11-24T18:21:17.455Z,5.47
2022-11-24T18:23:43.905Z,5.97
2022-11-24T18:26:14.892Z,6.72
2022-11-24T18:28:41.676Z,5.18
2022-11-24T18:31:09.635Z,5.93
2022-11-24T18:33:37.964Z,5.57
2022-11-24T18:36:06.751Z,5.50
2022-11-24T18:38:38.774Z,6.13
2022-11-24T18:41:05.910Z,6.05
2022-11-24T18:43:32.661Z,6.40
2022-11-24T18:45:59.087Z,5.57
2022-11-24T18:48:26.046Z,6.65
2022-11-24T18:50:53.234Z,5.95
2022-11-24T18:53:20.243Z,6.75
2022-11-24T18:55:56.905Z,6.78
2022-11-24T18:58:23.498Z,6.20
2022-11-24T19:00:49.940Z,6.75
2022-11-24T19:03:16.630Z,5.75
2022-11-24T19:05:44.762Z,7.00
2022-11-24T19:08:11.144Z,6.50
2022-11-24T19:10:40.706Z,6.55
2022-11-24T19:13:07.068Z,6.03
2022-11-24T19:15:34.268Z,7.05
2022-11-24T19:18:01.275Z,6.07
2022-11-24T19:20:29.898Z,7.15
2022-11-24T19:22:56.339Z,6.05
2022-11-24T19:25:22.747Z,6.47
2022-11-24T19:27:49.181Z,6.63
2022-11-24T19:30:16.497Z,6.50
2022-11-24T19:32:42.937Z,6.63
2022-11-24T19:35:09.513Z,7.20
2022-11-24T19:37:35.853Z,6.70
2022-11-24T19:40:02.495Z,7.00
2022-11-24T19:42:28.860Z,6.75
2022-11-24T19:44:56.869Z,7.00
2022-11-24T19:47:23.405Z,7.13
2022-11-24T19:49:49.748Z,5.97
2022-11-24T19:52:16.241Z,6.05
2022-11-24T19:54:42.572Z,8.18
2022-11-24T19:57:08.970Z,7.28
2022-11-24T19:59:35.433Z,6.65
2022-11-24T20:02:04.899Z,6.57
2022-11-24T20:04:33.220Z,7.88
2022-11-24T20:07:00.449Z,6.90
2022-11-24T20:09:26.868Z,7.13
2022-11-24T20:11:53.262Z,6.40
2022-11-24T20:14:20.014Z,7.97
2022-11-24T20:16:47.745Z,6.60
2022-11-24T20:19:17.954Z,6.07
2022-11-24T20:21:47.707Z,7.30
2022-11-24T20:24:15.333Z,6.20
2022-11-24T20:26:43.210Z,6.60
2022-11-24T20:29:11.997Z,5.85
2022-11-24T20:31:43.656Z,6.63
2022-11-24T20:34:10.403Z,6.47
2022-11-24T20:36:38.403Z,6.45
2022-11-24T20:39:06.033Z,6.82
2022-11-24T20:41:33.848Z,6.00
2022-11-24T20:44:01.588Z,7.63
2022-11-24T20:46:31.696Z,6.53
2022-11-24T20:48:58.480Z,5.65
2022-11-24T20:51:26.382Z,6.40
2022-11-24T20:53:56.330Z,5.95
2022-11-24T20:56:24.949Z,6.23
2022-11-24T20:58:51.356Z,6.65
2022-11-24T21:01:22.245Z,5.95
2022-11-24T21:06:14.995Z,5.50
2022-11-24T21:08:42.092Z,5.97
2022-11-24T21:11:10.411Z,6.13
2022-11-24T21:13:37.523Z,6.90
2022-11-24T21:16:14.384Z,6.78
2022-11-24T21:18:40.784Z,5.93
2022-11-24T21:21:07.452Z,5.78
2022-11-24T21:23:33.864Z,5.30
2022-11-24T21:26:05.131Z,4.80
2022-11-24T21:28:32.119Z,5.85
2022-11-24T21:31:12.272Z,6.13
2022-11-24T21:33:45.898Z,5.75
2022-11-24T21:36:14.701Z,5.70
2022-11-24T21:38:41.929Z,5.20
2022-11-24T21:41:08.899Z,5.93
2022-11-24T21:43:35.682Z,5.82
2022-11-24T21:46:03.041Z,5.43
2022-11-24T21:48:30.274Z,5.78
2022-11-24T21:51:00.043Z,5.85
2022-11-24T21:53:26.738Z,5.38
2022-11-24T21:56:00.043Z,6.05
2022-11-24T21:58:27.597Z,5.13
2022-11-24T22:00:54.115Z,5.50
2022-11-24T22:03:20.839Z,5.38
2022-11-24T22:05:54.255Z,5.53
2022-11-24T22:08:21.118Z,5.90
2022-11-24T22:10:47.579Z,4.90
2022-11-24T22:13:14.285Z,5.40
2022-11-24T22:15:40.609Z,5.57
2022-11-24T22:18:09.423Z,5.70
2022-11-24T22:20:35.793Z,5.53
2022-11-24T22:23:02.274Z,6.75
2022-11-24T22:25:28.682Z,5.93
2022-11-24T22:27:54.978Z,5.50
2022-11-24T22:30:21.344Z,6.57
2022-11-24T22:32:47.729Z,5.47
2022-11-24T22:35:14.165Z,5.00
2022-11-24T22:37:40.484Z,5.40
2022-11-24T22:40:07.287Z,5.72
2022-11-24T22:42:33.745Z,4.78
2022-11-24T22:45:00.095Z,5.18
2022-11-24T22:47:26.454Z,5.65
2022-11-24T22:49:52.949Z,4.88
2022-11-24T22:52:19.457Z,4.35
2022-11-24T22:54:45.787Z,6.40
2022-11-24T22:57:12.125Z,5.78
2022-11-24T22:59:38.444Z,5.85
2022-11-24T23:02:04.890Z,6.00
2022-11-24T23:04:31.280Z,5.32
2022-11-24T23:06:57.578Z,5.10
2022-11-24T23:09:23.943Z,5.15
2022-11-24T23:11:50.315Z,5.25
2022-11-24T23:14:16.668Z,4.30
2022-11-24T23:16:43.287Z,5.93
2022-11-24T23:19:09.944Z,6.00
2022-11-24T23:21:38.432Z,5.82
2022-11-24T23:24:05.502Z,4.78
2022-11-24T23:26:33.291Z,5.88
2022-11-24T23:28:59.649Z,5.45
2022-11-24T23:31:29.816Z,5.93
2022-11-24T23:34:00.581Z,5.68
2022-11-24T23:36:27.042Z,6.00
2022-11-24T23:38:54.016Z,5.28
2022-11-24T23:41:21.948Z,5.25
2022-11-24T23:43:48.299Z,5.45
2022-11-24T23:46:15.928Z,6.70
2022-11-24T23:48:42.514Z,5.85
2022-11-24T23:51:11.713Z,5.38
2022-11-24T23:53:38.066Z,5.75
2022-11-24T23:56:04.961Z,6.22
2022-11-24T23:58:31.931Z,5.70
